sensor_id;sensor_type;location;lat;lon;timestamp;temperature;humidity
10530;DHT22;5313;48.834;9.228;2023-04-30T00:00:07;12.00;99.90
10530;DHT22;5313;48.834;9.228;2023-04-30T00:02:34;12.00;99.90
10530;DHT22;5313;48.834;9.228;2023-04-30T00:05:00;12.00;99.90
10530;DHT22;5313;48.834;9.228;2023-04-30T00:07:25;12.00;99.90
10530;DHT22;5313;48.834;9.228;2023-04-30T00:09:51;12.00;99.90
10530;DHT22;5313;48.834;9.228;2023-04-30T00:12:16;12.00;99.90
10530;DHT22;5313;48.834;9.228;2023-04-30T00:14:42;12.00;99.90
10530;DHT22;5313;48.834;9.228;2023-04-30T00:17:07;12.00;99.90
10530;DHT22;5313;48.834;9.228;2023-04-30T00:19:33;12.00;99.90
10530;DHT22;5313;48.834;9.228;2023-04-30T00:21:58;11.90;99.90
10530;DHT22;5313;48.834;9.228;2023-04-30T00:24:26;11.90;99.90
10530;DHT22;5313;48.834;9.228;2023-04-30T00:26:52;11.90;99.90
10530;DHT22;5313;48.834;9.228;2023-04-30T00:29:17;11.90;99.90
10530;DHT22;5313;48.834;9.228;2023-04-30T00:31:43;11.80;99.90
10530;DHT22;5313;48.834;9.228;2023-04-30T00:34:08;11.80;99.90
10530;DHT22;5313;48.834;9.228;2023-04-30T00:36:34;11.70;99.90
10530;DHT22;5313;48.834;9.228;2023-04-30T00:38:59;11.70;99.90
10530;DHT22;5313;48.834;9.228;2023-04-30T00:41:26;11.70;99.90
10530;DHT22;5313;48.834;9.228;2023-04-30T00:43:52;11.70;99.90
10530;DHT22;5313;48.834;9.228;2023-04-30T00:46:17;11.70;99.90
10530;DHT22;5313;48.834;9.228;2023-04-30T00:48:43;11.60;99.90
10530;DHT22;5313;48.834;9.228;2023-04-30T00:51:08;11.60;99.90
10530;DHT22;5313;48.834;9.228;2023-04-30T00:53:34;11.60;99.90
10530;DHT22;5313;48.834;9.228;2023-04-30T00:56:00;11.60;99.90
10530;DHT22;5313;48.834;9.228;2023-04-30T00:58:26;11.60;99.90
10530;DHT22;5313;48.834;9.228;2023-04-30T01:00:52;11.60;99.90
10530;DHT22;5313;48.834;9.228;2023-04-30T01:03:17;11.70;99.90
10530;DHT22;5313;48.834;9.228;2023-04-30T01:05:44;11.70;99.90
10530;DHT22;5313;48.834;9.228;2023-04-30T01:08:09;11.70;99.90
10530;DHT22;5313;48.834;9.228;2023-04-30T01:10:44;11.70;99.90
10530;DHT22;5313;48.834;9.228;2023-04-30T01:13:31;11.60;99.90
10530;DHT22;5313;48.834;9.228;2023-04-30T01:18:41;11.60;99.90
10530;DHT22;5313;48.834;9.228;2023-04-30T01:21:08;11.60;99.90
10530;DHT22;5313;48.834;9.228;2023-04-30T01:26:47;11.60;99.90
10530;DHT22;5313;48.834;9.228;2023-04-30T01:29:18;11.60;99.90
10530;DHT22;5313;48.834;9.228;2023-04-30T01:31:45;11.60;99.90
10530;DHT22;5313;48.834;9.228;2023-04-30T01:34:10;11.60;99.90
10530;DHT22;5313;48.834;9.228;2023-04-30T01:36:49;11.60;99.90
10530;DHT22;5313;48.834;9.228;2023-04-30T01:39:32;11.60;99.90
10530;DHT22;5313;48.834;9.228;2023-04-30T01:52:45;11.50;99.90
10530;DHT22;5313;48.834;9.228;2023-04-30T01:55:21;11.40;99.90
10530;DHT22;5313;48.834;9.228;2023-04-30T01:57:56;11.40;99.90
10530;DHT22;5313;48.834;9.228;2023-04-30T02:00:26;11.40;99.90
10530;DHT22;5313;48.834;9.228;2023-04-30T02:02:52;11.50;99.90
10530;DHT22;5313;48.834;9.228;2023-04-30T02:05:18;11.40;99.90
10530;DHT22;5313;48.834;9.228;2023-04-30T02:07:46;11.40;99.90
10530;DHT22;5313;48.834;9.228;2023-04-30T02:10:13;11.30;99.90
10530;DHT22;5313;48.834;9.228;2023-04-30T02:12:39;11.30;99.90
10530;DHT22;5313;48.834;9.228;2023-04-30T02:15:05;11.30;99.90
10530;DHT22;5313;48.834;9.228;2023-04-30T02:17:31;11.30;99.90
10530;DHT22;5313;48.834;9.228;2023-04-30T02:19:57;11.20;99.90
10530;DHT22;5313;48.834;9.228;2023-04-30T02:22:23;11.10;99.90
10530;DHT22;5313;48.834;9.228;2023-04-30T02:24:49;11.10;99.90
10530;DHT22;5313;48.834;9.228;2023-04-30T02:27:15;11.10;99.90
10530;DHT22;5313;48.834;9.228;2023-04-30T02:29:41;11.10;99.90
10530;DHT22;5313;48.834;9.228;2023-04-30T02:32:06;11.10;99.90
10530;DHT22;5313;48.834;9.228;2023-04-30T02:34:32;11.10;99.90
10530;DHT22;5313;48.834;9.228;2023-04-30T02:36:57;11.10;99.90
10530;DHT22;5313;48.834;9.228;2023-04-30T02:39:23;11.10;99.90
10530;DHT22;5313;48.834;9.228;2023-04-30T02:41:48;11.00;99.90
10530;DHT22;5313;48.834;9.228;2023-04-30T02:44:14;11.00;99.90
10530;DHT22;5313;48.834;9.228;2023-04-30T02:46:40;11.00;99.90
10530;DHT22;5313;48.834;9.228;2023-04-30T02:49:06;11.00;99.90
10530;DHT22;5313;48.834;9.228;2023-04-30T02:51:31;11.00;99.90
10530;DHT22;5313;48.834;9.228;2023-04-30T02:53:57;11.00;99.90
10530;DHT22;5313;48.834;9.228;2023-04-30T02:56:22;11.00;99.90
10530;DHT22;5313;48.834;9.228;2023-04-30T02:58:48;11.00;99.90
10530;DHT22;5313;48.834;9.228;2023-04-30T03:01:14;11.00;99.90
10530;DHT22;5313;48.834;9.228;2023-04-30T03:03:39;10.90;99.90
10530;DHT22;5313;48.834;9.228;2023-04-30T03:06:05;10.90;99.90
10530;DHT22;5313;48.834;9.228;2023-04-30T03:08:30;10.80;99.90
10530;DHT22;5313;48.834;9.228;2023-04-30T03:10:56;10.90;99.90
10530;DHT22;5313;48.834;9.228;2023-04-30T03:13:22;10.90;99.90
10530;DHT22;5313;48.834;9.228;2023-04-30T03:15:56;10.90;99.90
10530;DHT22;5313;48.834;9.228;2023-04-30T03:18:22;10.80;99.90
10530;DHT22;5313;48.834;9.228;2023-04-30T03:20:47;10.80;99.90
10530;DHT22;5313;48.834;9.228;2023-04-30T03:23:13;10.80;99.90
10530;DHT22;5313;48.834;9.228;2023-04-30T03:25:39;10.90;99.90
10530;DHT22;5313;48.834;9.228;2023-04-30T03:28:04;10.90;99.90
10530;DHT22;5313;48.834;9.228;2023-04-30T03:30:30;10.90;99.90
10530;DHT22;5313;48.834;9.228;2023-04-30T03:32:56;10.90;99.90
10530;DHT22;5313;48.834;9.228;2023-04-30T03:35:21;10.90;99.90
10530;DHT22;5313;48.834;9.228;2023-04-30T03:37:47;10.90;99.90
10530;DHT22;5313;48.834;9.228;2023-04-30T03:40:12;10.90;99.90
10530;DHT22;5313;48.834;9.228;2023-04-30T03:42:38;10.90;99.90
10530;DHT22;5313;48.834;9.228;2023-04-30T03:45:04;10.90;99.90
10530;DHT22;5313;48.834;9.228;2023-04-30T03:47:29;10.80;99.90
10530;DHT22;5313;48.834;9.228;2023-04-30T03:49:55;10.70;99.90
10530;DHT22;5313;48.834;9.228;2023-04-30T03:52:20;10.70;99.90
10530;DHT22;5313;48.834;9.228;2023-04-30T03:54:47;10.70;99.90
10530;DHT22;5313;48.834;9.228;2023-04-30T03:57:12;10.70;99.90
10530;DHT22;5313;48.834;9.228;2023-04-30T03:59:39;10.70;99.90
10530;DHT22;5313;48.834;9.228;2023-04-30T04:02:05;10.70;99.90
10530;DHT22;5313;48.834;9.228;2023-04-30T04:04:32;10.70;99.90
10530;DHT22;5313;48.834;9.228;2023-04-30T04:06:58;10.70;99.90
10530;DHT22;5313;48.834;9.228;2023-04-30T04:09:24;10.70;99.90
10530;DHT22;5313;48.834;9.228;2023-04-30T04:11:49;10.70;99.90
10530;DHT22;5313;48.834;9.228;2023-04-30T04:14:15;10.70;99.90
10530;DHT22;5313;48.834;9.228;2023-04-30T04:16:41;10.70;99.90
10530;DHT22;5313;48.834;9.228;2023-04-30T04:19:07;10.70;99.90
10530;DHT22;5313;48.834;9.228;2023-04-30T04:21:32;10.80;99.90
10530;DHT22;5313;48.834;9.228;2023-04-30T04:23:58;10.80;99.90
10530;DHT22;5313;48.834;9.228;2023-04-30T04:26:23;10.80;99.90
10530;DHT22;5313;48.834;9.228;2023-04-30T04:28:50;10.80;99.90
10530;DHT22;5313;48.834;9.228;2023-04-30T04:31:16;10.90;99.90
10530;DHT22;5313;48.834;9.228;2023-04-30T04:33:43;10.80;99.90
10530;DHT22;5313;48.834;9.228;2023-04-30T04:36:08;10.90;99.90
10530;DHT22;5313;48.834;9.228;2023-04-30T04:38:33;10.90;99.90
10530;DHT22;5313;48.834;9.228;2023-04-30T04:40:59;11.00;99.90
10530;DHT22;5313;48.834;9.228;2023-04-30T04:43:25;11.00;99.90
10530;DHT22;5313;48.834;9.228;2023-04-30T04:45:50;11.00;99.90
10530;DHT22;5313;48.834;9.228;2023-04-30T04:48:16;11.00;99.90
10530;DHT22;5313;48.834;9.228;2023-04-30T04:50:42;11.00;99.90
10530;DHT22;5313;48.834;9.228;2023-04-30T04:53:07;10.90;99.90
10530;DHT22;5313;48.834;9.228;2023-04-30T04:55:33;10.90;99.90
10530;DHT22;5313;48.834;9.228;2023-04-30T04:57:59;11.00;99.90
10530;DHT22;5313;48.834;9.228;2023-04-30T05:00:24;11.00;99.90
10530;DHT22;5313;48.834;9.228;2023-04-30T05:02:50;11.00;99.90
10530;DHT22;5313;48.834;9.228;2023-04-30T05:05:15;11.00;99.90
10530;DHT22;5313;48.834;9.228;2023-04-30T05:07:41;10.90;99.90
10530;DHT22;5313;48.834;9.228;2023-04-30T05:10:07;10.90;99.90
10530;DHT22;5313;48.834;9.228;2023-04-30T05:12:33;11.00;99.90
10530;DHT22;5313;48.834;9.228;2023-04-30T05:14:58;11.00;99.90
10530;DHT22;5313;48.834;9.228;2023-04-30T05:17:24;11.00;99.90
10530;DHT22;5313;48.834;9.228;2023-04-30T05:19:50;11.00;99.90
10530;DHT22;5313;48.834;9.228;2023-04-30T05:22:16;11.00;99.90
10530;DHT22;5313;48.834;9.228;2023-04-30T05:24:41;11.00;99.90
10530;DHT22;5313;48.834;9.228;2023-04-30T05:27:07;11.00;99.90
10530;DHT22;5313;48.834;9.228;2023-04-30T05:29:33;11.10;99.90
10530;DHT22;5313;48.834;9.228;2023-04-30T05:32:00;11.10;99.90
10530;DHT22;5313;48.834;9.228;2023-04-30T05:34:25;11.20;99.90
10530;DHT22;5313;48.834;9.228;2023-04-30T05:36:51;11.20;99.90
10530;DHT22;5313;48.834;9.228;2023-04-30T05:39:17;11.20;99.90
10530;DHT22;5313;48.834;9.228;2023-04-30T05:41:42;11.30;99.90
10530;DHT22;5313;48.834;9.228;2023-04-30T05:44:08;11.30;99.90
10530;DHT22;5313;48.834;9.228;2023-04-30T05:46:34;11.40;99.90
10530;DHT22;5313;48.834;9.228;2023-04-30T05:49:00;11.40;99.90
10530;DHT22;5313;48.834;9.228;2023-04-30T05:51:26;11.40;99.90
10530;DHT22;5313;48.834;9.228;2023-04-30T05:53:52;11.40;99.90
10530;DHT22;5313;48.834;9.228;2023-04-30T05:56:18;11.50;99.90
10530;DHT22;5313;48.834;9.228;2023-04-30T05:58:43;11.50;99.90
10530;DHT22;5313;48.834;9.228;2023-04-30T06:01:09;11.50;99.90
10530;DHT22;5313;48.834;9.228;2023-04-30T06:03:35;11.50;99.90
10530;DHT22;5313;48.834;9.228;2023-04-30T06:06:02;11.60;99.90
10530;DHT22;5313;48.834;9.228;2023-04-30T06:08:28;11.70;99.90
10530;DHT22;5313;48.834;9.228;2023-04-30T06:10:54;11.80;99.90
10530;DHT22;5313;48.834;9.228;2023-04-30T06:13:21;11.90;99.90
10530;DHT22;5313;48.834;9.228;2023-04-30T06:15:47;12.00;99.90
10530;DHT22;5313;48.834;9.228;2023-04-30T06:18:12;12.00;99.90
10530;DHT22;5313;48.834;9.228;2023-04-30T06:20:38;12.10;99.90
10530;DHT22;5313;48.834;9.228;2023-04-30T06:23:04;12.20;99.90
10530;DHT22;5313;48.834;9.228;2023-04-30T06:25:30;12.20;99.90
10530;DHT22;5313;48.834;9.228;2023-04-30T06:27:55;12.30;99.90
10530;DHT22;5313;48.834;9.228;2023-04-30T06:30:21;12.40;99.90
10530;DHT22;5313;48.834;9.228;2023-04-30T06:32:46;12.40;99.90
10530;DHT22;5313;48.834;9.228;2023-04-30T06:35:12;12.20;99.90
10530;DHT22;5313;48.834;9.228;2023-04-30T06:37:37;12.30;99.90
10530;DHT22;5313;48.834;9.228;2023-04-30T06:40:04;12.40;99.90
10530;DHT22;5313;48.834;9.228;2023-04-30T06:42:30;12.60;99.90
10530;DHT22;5313;48.834;9.228;2023-04-30T06:45:03;12.50;99.90
10530;DHT22;5313;48.834;9.228;2023-04-30T06:47:30;12.70;99.90
10530;DHT22;5313;48.834;9.228;2023-04-30T06:50:01;12.80;99.90
10530;DHT22;5313;48.834;9.228;2023-04-30T06:52:27;12.80;99.90
10530;DHT22;5313;48.834;9.228;2023-04-30T06:54:52;13.00;99.90
10530;DHT22;5313;48.834;9.228;2023-04-30T06:57:18;12.90;99.90
10530;DHT22;5313;48.834;9.228;2023-04-30T06:59:43;13.00;99.90
10530;DHT22;5313;48.834;9.228;2023-04-30T07:02:09;13.00;99.90
10530;DHT22;5313;48.834;9.228;2023-04-30T07:04:35;13.10;99.90
10530;DHT22;5313;48.834;9.228;2023-04-30T07:07:00;12.90;99.90
10530;DHT22;5313;48.834;9.228;2023-04-30T07:09:27;12.80;99.90
10530;DHT22;5313;48.834;9.228;2023-04-30T07:11:53;12.70;99.90
10530;DHT22;5313;48.834;9.228;2023-04-30T07:14:19;12.60;99.90
10530;DHT22;5313;48.834;9.228;2023-04-30T07:16:45;12.70;99.90
10530;DHT22;5313;48.834;9.228;2023-04-30T07:19:11;12.60;99.90
10530;DHT22;5313;48.834;9.228;2023-04-30T07:21:36;12.80;99.90
10530;DHT22;5313;48.834;9.228;2023-04-30T07:24:02;13.00;99.90
10530;DHT22;5313;48.834;9.228;2023-04-30T07:26:27;13.00;99.90
10530;DHT22;5313;48.834;9.228;2023-04-30T07:28:53;13.20;99.90
10530;DHT22;5313;48.834;9.228;2023-04-30T07:31:19;13.30;99.90
10530;DHT22;5313;48.834;9.228;2023-04-30T07:33:44;13.30;99.90
10530;DHT22;5313;48.834;9.228;2023-04-30T07:36:10;13.40;99.90
10530;DHT22;5313;48.834;9.228;2023-04-30T07:38:35;13.60;99.90
10530;DHT22;5313;48.834;9.228;2023-04-30T07:41:01;13.60;99.90
10530;DHT22;5313;48.834;9.228;2023-04-30T07:43:27;13.60;99.90
10530;DHT22;5313;48.834;9.228;2023-04-30T07:45:53;13.60;99.90
10530;DHT22;5313;48.834;9.228;2023-04-30T07:48:19;13.70;99.90
10530;DHT22;5313;48.834;9.228;2023-04-30T07:50:48;14.00;99.90
10530;DHT22;5313;48.834;9.228;2023-04-30T07:53:14;14.40;99.90
10530;DHT22;5313;48.834;9.228;2023-04-30T07:55:40;14.60;99.90
10530;DHT22;5313;48.834;9.228;2023-04-30T07:58:05;14.50;99.90
10530;DHT22;5313;48.834;9.228;2023-04-30T08:00:31;14.70;99.90
10530;DHT22;5313;48.834;9.228;2023-04-30T08:02:57;14.70;99.90
10530;DHT22;5313;48.834;9.228;2023-04-30T08:05:23;14.70;99.90
10530;DHT22;5313;48.834;9.228;2023-04-30T08:07:48;14.80;99.90
10530;DHT22;5313;48.834;9.228;2023-04-30T08:10:14;14.90;99.90
10530;DHT22;5313;48.834;9.228;2023-04-30T08:12:40;15.00;99.90
10530;DHT22;5313;48.834;9.228;2023-04-30T08:15:06;15.10;99.90
10530;DHT22;5313;48.834;9.228;2023-04-30T08:17:34;15.10;99.90
10530;DHT22;5313;48.834;9.228;2023-04-30T08:20:02;15.50;99.90
10530;DHT22;5313;48.834;9.228;2023-04-30T08:22:27;15.70;99.90
10530;DHT22;5313;48.834;9.228;2023-04-30T08:24:53;15.60;99.90
10530;DHT22;5313;48.834;9.228;2023-04-30T08:27:20;15.20;99.90
10530;DHT22;5313;48.834;9.228;2023-04-30T08:29:45;15.10;99.90
10530;DHT22;5313;48.834;9.228;2023-04-30T08:32:11;15.10;99.90
10530;DHT22;5313;48.834;9.228;2023-04-30T08:34:37;15.20;99.90
10530;DHT22;5313;48.834;9.228;2023-04-30T08:37:05;15.40;99.90
10530;DHT22;5313;48.834;9.228;2023-04-30T08:39:30;15.30;99.90
10530;DHT22;5313;48.834;9.228;2023-04-30T08:41:56;15.20;99.90
10530;DHT22;5313;48.834;9.228;2023-04-30T08:44:26;15.10;99.90
10530;DHT22;5313;48.834;9.228;2023-04-30T08:46:54;15.20;99.90
10530;DHT22;5313;48.834;9.228;2023-04-30T08:49:23;15.20;99.90
10530;DHT22;5313;48.834;9.228;2023-04-30T08:51:50;15.30;99.90
10530;DHT22;5313;48.834;9.228;2023-04-30T08:54:17;15.50;99.90
10530;DHT22;5313;48.834;9.228;2023-04-30T08:56:44;15.30;99.90
10530;DHT22;5313;48.834;9.228;2023-04-30T08:59:11;15.20;99.90
10530;DHT22;5313;48.834;9.228;2023-04-30T09:01:37;15.30;99.90
10530;DHT22;5313;48.834;9.228;2023-04-30T09:04:03;15.30;99.90
10530;DHT22;5313;48.834;9.228;2023-04-30T09:06:29;15.10;99.90
10530;DHT22;5313;48.834;9.228;2023-04-30T09:08:55;15.10;99.90
10530;DHT22;5313;48.834;9.228;2023-04-30T09:13:49;15.50;99.90
10530;DHT22;5313;48.834;9.228;2023-04-30T09:16:15;15.80;99.90
10530;DHT22;5313;48.834;9.228;2023-04-30T09:18:40;16.10;99.90
10530;DHT22;5313;48.834;9.228;2023-04-30T09:21:06;16.40;99.90
10530;DHT22;5313;48.834;9.228;2023-04-30T09:23:33;16.90;99.90
10530;DHT22;5313;48.834;9.228;2023-04-30T09:25:59;16.80;99.90
10530;DHT22;5313;48.834;9.228;2023-04-30T09:28:27;16.70;99.90
10530;DHT22;5313;48.834;9.228;2023-04-30T09:30:56;16.30;99.90
10530;DHT22;5313;48.834;9.228;2023-04-30T09:33:22;16.20;99.90
10530;DHT22;5313;48.834;9.228;2023-04-30T09:35:48;16.30;99.90
10530;DHT22;5313;48.834;9.228;2023-04-30T09:38:30;16.20;99.90
10530;DHT22;5313;48.834;9.228;2023-04-30T09:41:00;15.60;99.90
10530;DHT22;5313;48.834;9.228;2023-04-30T09:43:29;16.00;99.90
10530;DHT22;5313;48.834;9.228;2023-04-30T09:45:57;16.00;99.90
10530;DHT22;5313;48.834;9.228;2023-04-30T09:48:24;15.90;99.90
10530;DHT22;5313;48.834;9.228;2023-04-30T09:50:50;15.70;99.90
10530;DHT22;5313;48.834;9.228;2023-04-30T09:53:16;15.70;99.90
10530;DHT22;5313;48.834;9.228;2023-04-30T09:55:51;15.80;99.90
10530;DHT22;5313;48.834;9.228;2023-04-30T09:58:18;15.90;99.90
10530;DHT22;5313;48.834;9.228;2023-04-30T10:00:46;16.00;99.90
10530;DHT22;5313;48.834;9.228;2023-04-30T10:03:14;16.00;99.90
10530;DHT22;5313;48.834;9.228;2023-04-30T10:05:42;16.00;99.90
10530;DHT22;5313;48.834;9.228;2023-04-30T10:08:20;16.20;99.90
10530;DHT22;5313;48.834;9.228;2023-04-30T10:10:54;16.10;99.90
10530;DHT22;5313;48.834;9.228;2023-04-30T10:13:25;16.10;99.90
10530;DHT22;5313;48.834;9.228;2023-04-30T10:15:58;16.00;99.90
10530;DHT22;5313;48.834;9.228;2023-04-30T10:18:38;16.10;99.90
10530;DHT22;5313;48.834;9.228;2023-04-30T10:21:06;16.20;99.90
10530;DHT22;5313;48.834;9.228;2023-04-30T10:23:37;16.40;99.90
10530;DHT22;5313;48.834;9.228;2023-04-30T10:26:04;16.70;99.90
10530;DHT22;5313;48.834;9.228;2023-04-30T10:28:31;16.80;99.90
10530;DHT22;5313;48.834;9.228;2023-04-30T10:30:57;16.40;99.90
10530;DHT22;5313;48.834;9.228;2023-04-30T10:33:49;16.40;99.90
10530;DHT22;5313;48.834;9.228;2023-04-30T10:36:27;16.70;99.90
10530;DHT22;5313;48.834;9.228;2023-04-30T10:38:57;16.60;99.90
10530;DHT22;5313;48.834;9.228;2023-04-30T10:41:25;16.50;99.90
10530;DHT22;5313;48.834;9.228;2023-04-30T10:43:55;16.60;99.90
10530;DHT22;5313;48.834;9.228;2023-04-30T10:46:23;16.60;99.90
10530;DHT22;5313;48.834;9.228;2023-04-30T10:48:51;16.80;99.90
10530;DHT22;5313;48.834;9.228;2023-04-30T10:51:19;16.70;99.90
10530;DHT22;5313;48.834;9.228;2023-04-30T10:53:49;16.70;99.90
10530;DHT22;5313;48.834;9.228;2023-04-30T10:56:29;16.80;99.90
10530;DHT22;5313;48.834;9.228;2023-04-30T10:58:58;16.80;99.90
10530;DHT22;5313;48.834;9.228;2023-04-30T11:01:25;16.90;99.90
10530;DHT22;5313;48.834;9.228;2023-04-30T11:04:11;16.80;99.90
10530;DHT22;5313;48.834;9.228;2023-04-30T11:09:15;16.70;99.90
10530;DHT22;5313;48.834;9.228;2023-04-30T11:11:43;16.80;99.90
10530;DHT22;5313;48.834;9.228;2023-04-30T11:14:10;16.90;99.90
10530;DHT22;5313;48.834;9.228;2023-04-30T11:16:36;16.80;99.90
10530;DHT22;5313;48.834;9.228;2023-04-30T11:19:06;16.80;99.90
10530;DHT22;5313;48.834;9.228;2023-04-30T11:21:33;16.80;99.90
10530;DHT22;5313;48.834;9.228;2023-04-30T11:24:05;17.00;99.90
10530;DHT22;5313;48.834;9.228;2023-04-30T11:27:03;17.00;99.90
10530;DHT22;5313;48.834;9.228;2023-04-30T11:29:30;16.90;99.90
10530;DHT22;5313;48.834;9.228;2023-04-30T11:31:59;16.90;99.90
10530;DHT22;5313;48.834;9.228;2023-04-30T11:34:25;17.20;99.90
10530;DHT22;5313;48.834;9.228;2023-04-30T11:36:53;17.20;99.90
10530;DHT22;5313;48.834;9.228;2023-04-30T11:39:23;16.90;99.90
10530;DHT22;5313;48.834;9.228;2023-04-30T11:41:49;17.00;99.90
10530;DHT22;5313;48.834;9.228;2023-04-30T11:44:24;16.90;99.90
10530;DHT22;5313;48.834;9.228;2023-04-30T11:46:50;16.90;99.90
10530;DHT22;5313;48.834;9.228;2023-04-30T11:49:16;17.10;99.90
10530;DHT22;5313;48.834;9.228;2023-04-30T11:51:41;17.10;99.90
10530;DHT22;5313;48.834;9.228;2023-04-30T11:54:07;17.40;99.90
10530;DHT22;5313;48.834;9.228;2023-04-30T11:56:36;17.30;99.90
10530;DHT22;5313;48.834;9.228;2023-04-30T11:59:09;17.30;99.90
10530;DHT22;5313;48.834;9.228;2023-04-30T12:01:35;17.30;99.90
10530;DHT22;5313;48.834;9.228;2023-04-30T12:04:01;17.40;99.90
10530;DHT22;5313;48.834;9.228;2023-04-30T12:06:30;17.20;99.90
10530;DHT22;5313;48.834;9.228;2023-04-30T12:08:58;17.10;99.90
10530;DHT22;5313;48.834;9.228;2023-04-30T12:11:27;16.90;99.90
10530;DHT22;5313;48.834;9.228;2023-04-30T12:13:54;16.70;99.90
10530;DHT22;5313;48.834;9.228;2023-04-30T12:16:21;16.80;99.90
10530;DHT22;5313;48.834;9.228;2023-04-30T12:18:47;16.90;99.90
10530;DHT22;5313;48.834;9.228;2023-04-30T12:21:13;17.00;99.90
10530;DHT22;5313;48.834;9.228;2023-04-30T12:23:39;17.20;99.90
10530;DHT22;5313;48.834;9.228;2023-04-30T12:26:05;17.20;99.90
10530;DHT22;5313;48.834;9.228;2023-04-30T12:28:33;17.20;99.90
10530;DHT22;5313;48.834;9.228;2023-04-30T12:30:59;17.20;99.90
10530;DHT22;5313;48.834;9.228;2023-04-30T12:33:29;17.20;99.90
10530;DHT22;5313;48.834;9.228;2023-04-30T12:35:56;17.00;99.90
10530;DHT22;5313;48.834;9.228;2023-04-30T12:38:22;17.20;99.90
10530;DHT22;5313;48.834;9.228;2023-04-30T12:40:48;17.10;99.90
10530;DHT22;5313;48.834;9.228;2023-04-30T12:43:15;17.00;99.90
10530;DHT22;5313;48.834;9.228;2023-04-30T12:48:15;17.30;99.90
10530;DHT22;5313;48.834;9.228;2023-04-30T12:50:41;17.50;99.90
10530;DHT22;5313;48.834;9.228;2023-04-30T12:53:07;17.20;99.90
10530;DHT22;5313;48.834;9.228;2023-04-30T12:55:33;17.20;99.90
10530;DHT22;5313;48.834;9.228;2023-04-30T12:58:09;17.20;99.90
10530;DHT22;5313;48.834;9.228;2023-04-30T13:00:49;17.30;99.90
10530;DHT22;5313;48.834;9.228;2023-04-30T13:03:17;17.30;99.90
10530;DHT22;5313;48.834;9.228;2023-04-30T13:05:48;17.30;99.90
10530;DHT22;5313;48.834;9.228;2023-04-30T13:08:15;17.00;99.90
10530;DHT22;5313;48.834;9.228;2023-04-30T13:10:41;16.90;99.90
10530;DHT22;5313;48.834;9.228;2023-04-30T13:13:06;16.90;99.90
10530;DHT22;5313;48.834;9.228;2023-04-30T13:15:32;17.10;99.90
10530;DHT22;5313;48.834;9.228;2023-04-30T13:17:57;17.30;99.90
10530;DHT22;5313;48.834;9.228;2023-04-30T13:20:23;17.30;99.90
10530;DHT22;5313;48.834;9.228;2023-04-30T13:22:51;17.50;99.90
10530;DHT22;5313;48.834;9.228;2023-04-30T13:25:17;17.40;99.90
10530;DHT22;5313;48.834;9.228;2023-04-30T13:27:43;17.60;99.90
10530;DHT22;5313;48.834;9.228;2023-04-30T13:30:09;18.00;99.90
10530;DHT22;5313;48.834;9.228;2023-04-30T13:32:35;18.20;99.90
10530;DHT22;5313;48.834;9.228;2023-04-30T13:35:01;18.10;99.90
10530;DHT22;5313;48.834;9.228;2023-04-30T13:37:27;17.80;99.90
10530;DHT22;5313;48.834;9.228;2023-04-30T13:39:55;17.50;99.90
10530;DHT22;5313;48.834;9.228;2023-04-30T13:42:21;17.50;99.90
10530;DHT22;5313;48.834;9.228;2023-04-30T13:44:46;17.60;99.90
10530;DHT22;5313;48.834;9.228;2023-04-30T13:47:14;17.60;99.90
10530;DHT22;5313;48.834;9.228;2023-04-30T13:49:40;17.80;99.90
10530;DHT22;5313;48.834;9.228;2023-04-30T13:52:05;18.10;99.90
10530;DHT22;5313;48.834;9.228;2023-04-30T13:54:31;18.30;98.30
10530;DHT22;5313;48.834;9.228;2023-04-30T13:56:57;18.50;99.40
10530;DHT22;5313;48.834;9.228;2023-04-30T13:59:26;18.80;98.80
10530;DHT22;5313;48.834;9.228;2023-04-30T14:01:51;19.00;96.50
10530;DHT22;5313;48.834;9.228;2023-04-30T14:04:17;18.40;98.00
10530;DHT22;5313;48.834;9.228;2023-04-30T14:06:43;18.20;97.40
10530;DHT22;5313;48.834;9.228;2023-04-30T14:09:09;18.60;96.10
10530;DHT22;5313;48.834;9.228;2023-04-30T14:11:35;18.60;96.90
10530;DHT22;5313;48.834;9.228;2023-04-30T14:14:00;18.80;97.20
10530;DHT22;5313;48.834;9.228;2023-04-30T14:16:26;18.60;97.20
10530;DHT22;5313;48.834;9.228;2023-04-30T14:18:53;19.00;96.90
10530;DHT22;5313;48.834;9.228;2023-04-30T14:21:18;19.00;97.50
10530;DHT22;5313;48.834;9.228;2023-04-30T14:23:44;18.80;97.60
10530;DHT22;5313;48.834;9.228;2023-04-30T14:26:11;18.80;97.50
10530;DHT22;5313;48.834;9.228;2023-04-30T14:28:37;18.50;99.90
10530;DHT22;5313;48.834;9.228;2023-04-30T14:31:02;18.30;99.30
10530;DHT22;5313;48.834;9.228;2023-04-30T14:33:29;18.00;98.80
10530;DHT22;5313;48.834;9.228;2023-04-30T14:35:55;18.20;98.90
10530;DHT22;5313;48.834;9.228;2023-04-30T14:38:20;18.00;98.70
10530;DHT22;5313;48.834;9.228;2023-04-30T14:40:46;17.90;99.90
10530;DHT22;5313;48.834;9.228;2023-04-30T14:43:11;17.70;99.50
10530;DHT22;5313;48.834;9.228;2023-04-30T14:45:37;17.80;99.90
10530;DHT22;5313;48.834;9.228;2023-04-30T14:48:04;18.00;99.90
10530;DHT22;5313;48.834;9.228;2023-04-30T14:50:29;18.00;99.10
10530;DHT22;5313;48.834;9.228;2023-04-30T14:52:55;18.00;98.50
10530;DHT22;5313;48.834;9.228;2023-04-30T14:55:21;18.00;99.80
10530;DHT22;5313;48.834;9.228;2023-04-30T14:57:47;17.90;99.00
10530;DHT22;5313;48.834;9.228;2023-04-30T15:00:13;18.00;99.30
10530;DHT22;5313;48.834;9.228;2023-04-30T15:02:39;18.10;99.50
10530;DHT22;5313;48.834;9.228;2023-04-30T15:05:06;18.00;99.10
10530;DHT22;5313;48.834;9.228;2023-04-30T15:07:32;17.90;99.90
10530;DHT22;5313;48.834;9.228;2023-04-30T15:09:58;17.80;99.70
10530;DHT22;5313;48.834;9.228;2023-04-30T15:12:23;17.80;99.90
10530;DHT22;5313;48.834;9.228;2023-04-30T15:14:49;17.80;99.90
10530;DHT22;5313;48.834;9.228;2023-04-30T15:17:14;17.90;99.40
10530;DHT22;5313;48.834;9.228;2023-04-30T15:19:40;17.80;97.70
10530;DHT22;5313;48.834;9.228;2023-04-30T15:22:06;17.80;99.20
10530;DHT22;5313;48.834;9.228;2023-04-30T15:24:32;17.90;99.90
10530;DHT22;5313;48.834;9.228;2023-04-30T15:26:57;18.00;99.90
10530;DHT22;5313;48.834;9.228;2023-04-30T15:29:23;17.80;99.50
10530;DHT22;5313;48.834;9.228;2023-04-30T15:31:48;17.80;99.90
10530;DHT22;5313;48.834;9.228;2023-04-30T15:34:19;17.80;99.90
10530;DHT22;5313;48.834;9.228;2023-04-30T15:36:45;17.80;99.90
10530;DHT22;5313;48.834;9.228;2023-04-30T15:39:11;17.80;99.90
10530;DHT22;5313;48.834;9.228;2023-04-30T15:41:36;17.90;99.90
10530;DHT22;5313;48.834;9.228;2023-04-30T15:44:02;18.00;99.90
10530;DHT22;5313;48.834;9.228;2023-04-30T15:46:28;18.10;99.90
10530;DHT22;5313;48.834;9.228;2023-04-30T15:48:54;17.90;99.90
10530;DHT22;5313;48.834;9.228;2023-04-30T15:51:19;17.90;99.90
10530;DHT22;5313;48.834;9.228;2023-04-30T15:53:45;17.70;99.90
10530;DHT22;5313;48.834;9.228;2023-04-30T15:56:10;17.60;99.90
10530;DHT22;5313;48.834;9.228;2023-04-30T15:58:36;17.50;99.90
10530;DHT22;5313;48.834;9.228;2023-04-30T16:01:01;17.50;99.90
10530;DHT22;5313;48.834;9.228;2023-04-30T16:03:28;17.50;99.90
10530;DHT22;5313;48.834;9.228;2023-04-30T16:05:53;17.60;99.90